Time;durP1;ratioP1;P1;durP2;ratioP2;P2;SDS_P1;SDS_P2;PMS_P1;PMS_P2;Temp;Humidity;BMP_temperature;BMP_pressure;BME280_temperature;BME280_humidity;BME280_pressure;Samples;Min_cycle;Max_cycle;Signal;HPM_P1;HPM_P2
2021/07/17 00:02:07;;;;;;;6.25;3.67;;;16.30;80.60;;;;;;5032052;28;20048;-79
2021/07/17 00:04:35;;;;;;;8.05;3.78;;;16.30;80.70;;;;;;5031723;28;20042;-79
2021/07/17 00:07:03;;;;;;;8.25;3.30;;;16.30;80.80;;;;;;5031942;28;20042;-79
2021/07/17 00:09:30;;;;;;;4.50;3.33;;;16.30;81.00;;;;;;5018800;28;20056;-79
2021/07/17 00:11:58;;;;;;;9.25;3.53;;;16.30;81.20;;;;;;5012044;28;20396;-79
2021/07/17 00:14:27;;;;;;;11.75;3.22;;;16.30;81.30;;;;;;5012280;28;20069;-79
2021/07/17 00:16:55;;;;;;;5.60;3.55;;;16.30;81.40;;;;;;5012305;28;20050;-79
2021/07/17 00:19:23;;;;;;;11.18;3.58;;;16.30;81.60;;;;;;5012641;28;20050;-79
2021/07/17 00:21:50;;;;;;;10.27;3.80;;;16.30;81.70;;;;;;5012519;28;20054;-79
2021/07/17 00:24:18;;;;;;;10.63;4.25;;;16.30;81.80;;;;;;5012158;28;20045;-79
2021/07/17 00:26:46;;;;;;;12.88;4.90;;;16.20;81.90;;;;;;5012140;28;20049;-79
2021/07/17 00:29:13;;;;;;;8.73;4.45;;;16.20;82.00;;;;;;5012131;28;20399;-79
2021/07/17 00:31:41;;;;;;;14.13;4.30;;;16.20;82.30;;;;;;5012178;28;20046;-79
2021/07/17 00:34:09;;;;;;;11.43;4.20;;;16.20;82.40;;;;;;5026653;28;20064;-79
2021/07/17 00:36:37;;;;;;;14.98;5.53;;;16.20;82.50;;;;;;5032234;28;20052;-79
2021/07/17 00:39:04;;;;;;;13.25;6.80;;;16.20;82.60;;;;;;5021708;28;20403;-79
2021/07/17 00:41:32;;;;;;;15.48;6.47;;;16.20;83.00;;;;;;5011942;28;20061;-79
2021/07/17 00:43:59;;;;;;;13.32;6.60;;;16.10;83.20;;;;;;5012269;28;20305;-79
2021/07/17 00:46:28;;;;;;;12.90;5.00;;;16.00;83.30;;;;;;5012097;28;20538;-79
2021/07/17 00:48:56;;;;;;;9.93;4.63;;;16.00;83.50;;;;;;5012041;28;20049;-79
2021/07/17 00:51:26;;;;;;;10.85;5.05;;;15.90;83.80;;;;;;5011931;28;20061;-79
2021/07/17 00:53:54;;;;;;;14.05;5.97;;;15.80;84.00;;;;;;5012351;28;20045;-79
2021/07/17 00:56:22;;;;;;;15.73;6.07;;;15.90;84.10;;;;;;5012275;28;20527;-79
2021/07/17 00:58:51;;;;;;;14.13;5.97;;;15.80;84.10;;;;;;5013326;28;20049;-79
2021/07/17 01:01:19;;;;;;;10.60;5.57;;;15.80;84.30;;;;;;5015469;28;20042;-79
2021/07/17 01:03:48;;;;;;;11.40;4.93;;;15.70;84.40;;;;;;5015246;28;20042;-79
2021/07/17 01:06:16;;;;;;;10.65;4.30;;;15.70;84.60;;;;;;5015263;28;20050;-79
2021/07/17 01:08:43;;;;;;;9.52;4.78;;;15.70;84.90;;;;;;5015369;28;20045;-79
2021/07/17 01:11:11;;;;;;;8.50;4.80;;;15.60;85.00;;;;;;5015227;28;20046;-79
2021/07/17 01:13:39;;;;;;;10.82;5.47;;;15.70;85.20;;;;;;5015161;28;20049;-79
2021/07/17 01:16:06;;;;;;;8.93;5.32;;;15.60;85.40;;;;;;5031196;28;20057;-79
2021/07/17 01:18:37;;;;;;;11.95;5.18;;;15.60;85.50;;;;;;5035466;28;20053;-79
2021/07/17 01:21:07;;;;;;;12.45;5.45;;;15.50;85.60;;;;;;5034503;28;20042;-79
2021/07/17 01:23:37;;;;;;;8.65;4.80;;;15.50;85.80;;;;;;5034591;28;20049;-79
2021/07/17 01:26:04;;;;;;;11.90;5.70;;;15.40;85.90;;;;;;5033250;28;20159;-79
2021/07/17 01:28:32;;;;;;;13.35;4.85;;;15.40;86.00;;;;;;5016992;28;20084;-79
2021/07/17 01:30:59;;;;;;;12.13;5.78;;;15.40;86.10;;;;;;5014853;28;20041;-78
2021/07/17 01:33:27;;;;;;;12.10;5.72;;;15.40;86.30;;;;;;5014580;28;20049;-79
2021/07/17 01:35:54;;;;;;;15.52;6.32;;;15.30;86.40;;;;;;5028125;28;20041;-79
2021/07/17 01:38:23;;;;;;;21.85;7.88;;;15.30;86.50;;;;;;5030593;28;20070;-79
2021/07/17 01:40:51;;;;;;;19.67;8.18;;;15.30;86.60;;;;;;5029908;28;20049;-80
2021/07/17 01:43:18;;;;;;;24.25;7.93;;;15.30;86.80;;;;;;5029343;28;20507;-79
2021/07/17 01:46:00;;;;;;;15.82;6.68;;;15.20;86.80;;;;;;5014646;28;20042;-80
2021/07/17 01:48:28;;;;;;;17.35;6.63;;;15.20;86.90;;;;;;5015038;28;20042;-80
2021/07/17 01:50:55;;;;;;;15.07;6.43;;;15.10;86.90;;;;;;5015236;28;20057;-79
2021/07/17 01:53:23;;;;;;;19.65;6.90;;;15.10;87.10;;;;;;5015396;28;20057;-80
2021/07/17 01:55:51;;;;;;;22.13;7.10;;;15.10;87.20;;;;;;5047523;28;20053;-79
2021/07/17 01:58:19;;;;;;;20.95;7.68;;;15.00;87.30;;;;;;5014700;28;20050;-80
2021/07/17 02:00:47;;;;;;;22.55;7.75;;;15.00;87.40;;;;;;5015485;28;20053;-78
2021/07/17 02:03:14;;;;;;;22.73;7.32;;;15.00;87.50;;;;;;5014500;28;20053;-80
2021/07/17 02:05:42;;;;;;;20.10;7.93;;;14.90;87.50;;;;;;5014418;28;20053;-80
2021/07/17 02:08:14;;;;;;;20.55;7.45;;;14.80;87.70;;;;;;5014291;28;20384;-80
2021/07/17 02:10:41;;;;;;;18.83;7.00;;;14.80;87.90;;;;;;5029106;28;20046;-79
2021/07/17 02:13:14;;;;;;;30.60;8.20;;;14.80;87.90;;;;;;5022515;28;20049;-79
2021/07/17 02:15:46;;;;;;;24.13;8.00;;;14.80;88.00;;;;;;5034390;28;20221;-79
2021/07/17 02:18:21;;;;;;;25.27;9.00;;;14.70;88.00;;;;;;5033771;28;20478;-79
2021/07/17 02:20:49;;;;;;;24.70;8.45;;;14.70;88.00;;;;;;5033599;28;20052;-79
2021/07/17 02:23:17;;;;;;;22.92;8.15;;;14.60;88.10;;;;;;5032451;28;20391;-79
2021/07/17 02:25:45;;;;;;;24.73;8.55;;;14.60;88.30;;;;;;5033755;28;20049;-79
2021/07/17 02:28:12;;;;;;;21.30;8.13;;;14.50;88.50;;;;;;5032481;28;20050;-80
2021/07/17 02:30:40;;;;;;;21.70;7.20;;;14.60;88.60;;;;;;5033588;28;20496;-79
2021/07/17 02:33:08;;;;;;;16.83;6.22;;;14.50;88.60;;;;;;5032577;28;20057;-78
2021/07/17 02:35:35;;;;;;;18.38;6.63;;;14.50;88.60;;;;;;5032067;28;20056;-79
2021/07/17 02:38:03;;;;;;;14.32;6.82;;;14.50;88.70;;;;;;5032205;28;20053;-78
2021/07/17 02:40:31;;;;;;;27.55;9.18;;;14.50;88.80;;;;;;5033087;28;20046;-78
2021/07/17 02:42:58;;;;;;;23.80;8.60;;;14.40;88.80;;;;;;5033065;28;20045;-78
2021/07/17 02:45:27;;;;;;;21.10;9.20;;;14.40;88.80;;;;;;5033448;28;20057;-78
2021/07/17 02:47:55;;;;;;;22.20;8.48;;;14.30;88.80;;;;;;5033143;28;20065;-78
2021/07/17 02:50:23;;;;;;;20.38;8.38;;;14.30;88.90;;;;;;5031863;28;20052;-78
2021/07/17 02:52:51;;;;;;;21.20;8.80;;;14.30;89.00;;;;;;5033063;28;20376;-78
2021/07/17 02:55:21;;;;;;;22.73;9.30;;;14.30;89.10;;;;;;5033195;28;20045;-78
2021/07/17 02:57:48;;;;;;;25.08;9.07;;;14.30;89.30;;;;;;5033065;28;20050;-78
2021/07/17 03:00:16;;;;;;;22.58;9.20;;;14.30;89.30;;;;;;5032802;28;20061;-78
2021/07/17 03:02:44;;;;;;;15.65;6.93;;;14.30;89.30;;;;;;5032864;28;20425;-78
2021/07/17 03:05:12;;;;;;;12.30;6.28;;;14.30;89.40;;;;;;5033000;28;20053;-77
2021/07/17 03:07:40;;;;;;;14.40;6.53;;;14.30;89.50;;;;;;5035478;28;20049;-78
2021/07/17 03:10:08;;;;;;;14.90;5.65;;;14.30;89.50;;;;;;5015708;28;20616;-78
2021/07/17 03:12:35;;;;;;;12.02;6.18;;;14.30;89.50;;;;;;5013181;28;20053;-77
2021/07/17 03:15:04;;;;;;;17.77;5.95;;;14.30;89.50;;;;;;5013597;28;20049;-78
2021/07/17 03:17:31;;;;;;;12.82;6.78;;;14.30;89.40;;;;;;5012963;28;20061;-78
2021/07/17 03:19:59;;;;;;;15.70;6.60;;;14.30;89.40;;;;;;5012728;28;20050;-77
2021/07/17 03:22:27;;;;;;;10.05;6.53;;;14.30;89.40;;;;;;5012461;28;20045;-78
2021/07/17 03:24:54;;;;;;;10.73;6.75;;;14.40;89.40;;;;;;5012933;28;20050;-78
2021/07/17 03:27:22;;;;;;;13.27;7.32;;;14.40;89.30;;;;;;5012771;28;20488;-78
2021/07/17 03:29:49;;;;;;;11.98;7.45;;;14.50;89.30;;;;;;5013245;28;20054;-78
2021/07/17 03:32:26;;;;;;;16.60;7.75;;;14.50;89.30;;;;;;5027755;28;20046;-78
2021/07/17 03:34:55;;;;;;;19.38;8.25;;;14.50;89.40;;;;;;5012385;28;20390;-78
2021/07/17 03:37:23;;;;;;;15.02;7.70;;;14.40;89.30;;;;;;5012694;28;20050;-78
2021/07/17 03:39:51;;;;;;;14.40;7.97;;;14.40;89.40;;;;;;5012552;28;20046;-78
2021/07/17 03:42:19;;;;;;;20.48;8.40;;;14.50;89.40;;;;;;5012490;28;20046;-79
2021/07/17 03:44:47;;;;;;;14.68;7.93;;;14.50;89.50;;;;;;5012452;28;20398;-79
2021/07/17 03:47:15;;;;;;;15.18;7.53;;;14.50;89.50;;;;;;5012628;28;20037;-77
2021/07/17 03:49:42;;;;;;;17.58;7.60;;;14.40;89.40;;;;;;5011034;28;20052;-78
2021/07/17 03:52:10;;;;;;;14.05;7.60;;;14.40;89.40;;;;;;5012390;28;20053;-78
2021/07/17 03:54:38;;;;;;;12.63;6.53;;;14.40;89.40;;;;;;5027710;28;20052;-78
2021/07/17 03:57:06;;;;;;;13.52;7.72;;;14.30;89.30;;;;;;5019403;28;20391;-78
2021/07/17 03:59:34;;;;;;;13.57;7.18;;;14.30;89.30;;;;;;5032014;28;20065;-78
2021/07/17 04:02:01;;;;;;;13.00;6.68;;;14.20;89.40;;;;;;5046365;28;20060;-79
2021/07/17 04:04:31;;;;;;;11.88;6.75;;;14.20;89.30;;;;;;5011052;28;20038;-78
2021/07/17 04:06:59;;;;;;;11.05;7.32;;;14.10;89.30;;;;;;5012447;28;20399;-78
2021/07/17 04:09:27;;;;;;;17.25;7.68;;;14.10;89.40;;;;;;5012562;28;20064;-79
2021/07/17 04:11:54;;;;;;;10.98;6.95;;;14.00;89.50;;;;;;5012331;28;20049;-78
2021/07/17 04:14:23;;;;;;;12.75;8.30;;;14.00;89.50;;;;;;5012551;28;20067;-79
2021/07/17 04:16:50;;;;;;;14.93;7.68;;;13.90;89.40;;;;;;5012344;28;20046;-79
2021/07/17 04:19:18;;;;;;;21.88;9.13;;;13.90;89.50;;;;;;5012383;28;20050;-78
2021/07/17 04:21:45;;;;;;;20.48;9.93;;;13.90;89.60;;;;;;5013844;28;20058;-78
2021/07/17 04:24:13;;;;;;;17.42;8.68;;;13.90;89.70;;;;;;5044074;28;20046;-79
2021/07/17 04:26:41;;;;;;;23.92;10.40;;;13.90;89.80;;;;;;5011593;28;20061;-79
2021/07/17 04:29:08;;;;;;;36.08;13.13;;;13.90;90.00;;;;;;5011209;28;20053;-78
2021/07/17 04:31:36;;;;;;;34.63;13.05;;;14.00;90.00;;;;;;5012574;28;20419;-78
2021/07/17 04:34:03;;;;;;;32.42;13.48;;;14.00;90.10;;;;;;5013894;28;20145;-78
2021/07/17 04:36:32;;;;;;;29.33;12.73;;;14.00;90.10;;;;;;5015798;28;20129;-79
2021/07/17 04:39:00;;;;;;;32.63;13.65;;;14.10;90.10;;;;;;5015793;28;20046;-78
2021/07/17 04:41:27;;;;;;;28.95;13.27;;;14.00;90.10;;;;;;5015720;28;20065;-79
2021/07/17 04:43:55;;;;;;;27.55;11.93;;;14.10;90.20;;;;;;5014570;28;20046;-78
2021/07/17 04:46:22;;;;;;;23.17;11.05;;;14.10;90.30;;;;;;5015705;28;20057;-78
2021/07/17 04:48:50;;;;;;;19.85;10.88;;;14.10;90.30;;;;;;5015739;28;20046;-78
2021/07/17 04:51:18;;;;;;;21.42;11.20;;;14.20;90.30;;;;;;5014298;28;20042;-79
2021/07/17 04:53:45;;;;;;;22.92;10.55;;;14.20;90.30;;;;;;5015607;28;20042;-79
2021/07/17 04:56:13;;;;;;;22.90;10.32;;;14.20;90.30;;;;;;5015964;28;20095;-78
2021/07/17 04:58:40;;;;;;;20.98;11.25;;;14.20;90.20;;;;;;5015555;28;20112;-78
2021/07/17 05:01:08;;;;;;;21.27;10.55;;;14.30;90.10;;;;;;5030608;28;20498;-79
2021/07/17 05:03:36;;;;;;;28.23;10.48;;;14.30;90.10;;;;;;5015615;28;20052;-79
2021/07/17 05:06:04;;;;;;;16.70;9.02;;;14.30;90.00;;;;;;5018523;28;20054;-78
2021/07/17 05:08:32;;;;;;;18.17;9.35;;;14.30;90.00;;;;;;5014625;28;20046;-79
2021/07/17 05:11:00;;;;;;;17.48;9.73;;;14.30;89.90;;;;;;5046870;28;20058;-78
2021/07/17 05:13:27;;;;;;;19.92;10.25;;;14.40;89.80;;;;;;5015249;28;20041;-79
2021/07/17 05:15:55;;;;;;;23.48;10.35;;;14.50;89.80;;;;;;5015619;28;20050;-79
2021/07/17 05:18:23;;;;;;;19.85;10.50;;;14.50;89.80;;;;;;5015103;28;20415;-79
2021/07/17 05:20:50;;;;;;;18.38;10.57;;;14.60;89.70;;;;;;5030472;28;20046;-79
2021/07/17 05:23:18;;;;;;;19.77;11.95;;;14.70;89.70;;;;;;5013734;28;20045;-79
2021/07/17 05:25:46;;;;;;;20.25;11.80;;;14.80;89.60;;;;;;5015452;28;20065;-79
2021/07/17 05:28:13;;;;;;;22.13;12.13;;;14.80;89.60;;;;;;5015412;28;20045;-80
2021/07/17 05:30:41;;;;;;;22.15;11.60;;;14.90;89.60;;;;;;5014925;28;20054;-79
2021/07/17 05:33:10;;;;;;;17.25;11.45;;;15.00;89.60;;;;;;5014795;28;20058;-80
2021/07/17 05:35:38;;;;;;;23.80;12.05;;;15.10;89.50;;;;;;5014811;28;20270;-79
2021/07/17 05:38:06;;;;;;;25.50;14.15;;;15.30;89.40;;;;;;5015353;28;20066;-79
2021/07/17 05:40:34;;;;;;;27.13;13.90;;;15.30;89.40;;;;;;5014621;28;20511;-80
2021/07/17 05:43:03;;;;;;;23.80;12.82;;;15.40;89.40;;;;;;5013519;28;20522;-78
2021/07/17 05:45:30;;;;;;;22.77;12.20;;;15.60;89.40;;;;;;5014039;28;20052;-78
2021/07/17 05:47:58;;;;;;;24.55;12.90;;;15.80;89.20;;;;;;5014665;28;20408;-78
2021/07/17 05:50:25;;;;;;;22.20;12.93;;;15.90;88.90;;;;;;5013305;28;20049;-77
2021/07/17 05:52:53;;;;;;;26.00;13.25;;;16.00;88.80;;;;;;5013174;28;20046;-78
2021/07/17 05:55:20;;;;;;;24.92;13.75;;;16.10;88.70;;;;;;5014502;28;20065;-77
2021/07/17 05:57:48;;;;;;;25.27;13.88;;;16.20;88.70;;;;;;5045533;28;20060;-78
2021/07/17 06:00:19;;;;;;;30.08;13.68;;;16.30;88.70;;;;;;5012633;28;20053;-77
2021/07/17 06:02:47;;;;;;;23.98;13.38;;;16.40;88.60;;;;;;5014487;28;20368;-78
2021/07/17 06:05:15;;;;;;;28.35;13.18;;;16.50;88.50;;;;;;5014476;28;20400;-78
2021/07/17 06:07:42;;;;;;;25.92;13.93;;;16.60;88.50;;;;;;5014272;28;20049;-78
2021/07/17 06:10:11;;;;;;;21.85;12.52;;;16.70;88.40;;;;;;5014585;28;20054;-78
2021/07/17 06:12:39;;;;;;;26.00;11.88;;;16.80;88.30;;;;;;5012284;28;20395;-78
2021/07/17 06:15:07;;;;;;;22.98;12.63;;;16.90;88.20;;;;;;5013786;28;20069;-78
2021/07/17 06:17:35;;;;;;;24.17;11.77;;;17.00;88.10;;;;;;5014153;28;20042;-79
2021/07/17 06:20:03;;;;;;;24.48;11.15;;;17.10;88.00;;;;;;5013913;28;20053;-78
2021/07/17 06:22:31;;;;;;;15.95;10.63;;;17.30;87.80;;;;;;5013908;28;20045;-78
2021/07/17 06:24:58;;;;;;;21.40;11.80;;;17.30;87.70;;;;;;5014001;28;20052;-78
2021/07/17 06:27:26;;;;;;;20.95;11.65;;;17.50;87.60;;;;;;5045392;28;20038;-77
2021/07/17 06:29:53;;;;;;;20.63;11.52;;;17.60;87.40;;;;;;5013800;28;20054;-78
2021/07/17 06:32:21;;;;;;;18.27;11.75;;;17.70;87.30;;;;;;5013664;28;20049;-78
2021/07/17 06:34:49;;;;;;;20.58;11.40;;;17.80;87.20;;;;;;5013214;28;20050;-78
2021/07/17 06:37:17;;;;;;;20.35;10.02;;;17.80;87.00;;;;;;5013703;28;20057;-78
2021/07/17 06:39:44;;;;;;;16.23;10.45;;;17.90;86.90;;;;;;5014095;28;20495;-78
2021/07/17 06:42:12;;;;;;;16.25;9.55;;;18.00;86.70;;;;;;5013576;28;20403;-78
2021/07/17 06:44:39;;;;;;;18.35;9.07;;;18.10;86.60;;;;;;5015198;28;20042;-78
2021/07/17 06:47:07;;;;;;;13.60;9.05;;;18.20;86.40;;;;;;5014794;28;20062;-79
2021/07/17 06:49:35;;;;;;;13.82;8.88;;;18.20;86.20;;;;;;5013844;28;20475;-79
2021/07/17 06:52:02;;;;;;;17.02;8.45;;;18.30;85.90;;;;;;5013616;28;20038;-79
2021/07/17 06:54:30;;;;;;;13.63;8.10;;;18.30;85.60;;;;;;5013440;28;20049;-78
2021/07/17 06:56:57;;;;;;;16.13;8.32;;;18.30;85.50;;;;;;5012731;28;20050;-78
2021/07/17 06:59:25;;;;;;;15.18;8.27;;;18.40;85.20;;;;;;5013693;28;20061;-78
2021/07/17 07:01:53;;;;;;;15.38;8.13;;;18.40;85.00;;;;;;5013202;28;20057;-78
2021/07/17 07:04:21;;;;;;;14.48;8.35;;;18.40;85.00;;;;;;5013206;28;20056;-78
2021/07/17 07:06:49;;;;;;;15.65;8.75;;;18.50;85.00;;;;;;5013846;28;20052;-78
2021/07/17 07:09:16;;;;;;;16.35;9.52;;;18.50;84.90;;;;;;5013586;28;20046;-78
2021/07/17 07:11:44;;;;;;;17.60;8.98;;;18.60;84.90;;;;;;5013154;28;20069;-78
2021/07/17 07:14:12;;;;;;;13.73;8.82;;;18.70;84.70;;;;;;5011888;28;20061;-78
2021/07/17 07:16:39;;;;;;;18.02;8.32;;;18.70;84.60;;;;;;5013089;28;20124;-79
2021/07/17 07:19:07;;;;;;;14.98;8.30;;;18.80;84.40;;;;;;5013011;28;20046;-78
2021/07/17 07:21:36;;;;;;;14.52;8.48;;;18.80;84.30;;;;;;5044431;28;20057;-78
2021/07/17 07:24:03;;;;;;;14.50;7.93;;;18.80;84.20;;;;;;5044404;28;20045;-78
2021/07/17 07:26:31;;;;;;;14.13;8.55;;;18.90;84.10;;;;;;5012785;28;20065;-78
2021/07/17 07:28:59;;;;;;;13.18;8.25;;;19.00;83.90;;;;;;5012724;28;20052;-78
2021/07/17 07:31:27;;;;;;;15.50;8.00;;;19.00;83.70;;;;;;5012637;28;20049;-78
2021/07/17 07:33:55;;;;;;;11.65;8.63;;;19.10;83.60;;;;;;5012806;28;20064;-78
2021/07/17 07:36:22;;;;;;;12.05;7.85;;;19.10;83.40;;;;;;5012543;28;20052;-78
2021/07/17 07:38:50;;;;;;;16.05;8.40;;;19.20;83.20;;;;;;5012868;28;20053;-78
2021/07/17 07:41:18;;;;;;;13.88;7.60;;;19.30;83.10;;;;;;5012585;28;20050;-78
2021/07/17 07:43:46;;;;;;;11.75;7.30;;;19.30;83.00;;;;;;5012889;28;20408;-78
2021/07/17 07:46:14;;;;;;;12.25;7.78;;;19.40;82.90;;;;;;5012522;28;20046;-78
2021/07/17 07:48:42;;;;;;;9.98;7.25;;;19.50;82.70;;;;;;5012501;28;20056;-78
2021/07/17 07:51:10;;;;;;;11.00;6.38;;;19.60;82.40;;;;;;5012833;28;20049;-78
2021/07/17 07:53:38;;;;;;;15.85;7.30;;;19.70;82.20;;;;;;5012452;28;20054;-78
2021/07/17 07:56:06;;;;;;;11.10;6.22;;;19.80;82.10;;;;;;5012426;28;20054;-78
2021/07/17 07:58:33;;;;;;;12.88;6.63;;;19.80;81.80;;;;;;5012377;28;20057;-78
2021/07/17 08:01:01;;;;;;;8.93;6.20;;;19.90;81.60;;;;;;5043825;28;20046;-78
2021/07/17 08:03:29;;;;;;;13.18;6.13;;;20.00;81.30;;;;;;5012282;28;20050;-78
2021/07/17 08:05:57;;;;;;;8.93;5.10;;;20.10;81.00;;;;;;5015456;28;20042;-78
2021/07/17 08:08:24;;;;;;;15.00;5.20;;;20.30;80.70;;;;;;5039775;28;20052;-79
2021/07/17 08:10:52;;;;;;;12.25;5.43;;;20.30;80.40;;;;;;5045264;28;20045;-79
2021/07/17 08:13:20;;;;;;;42.45;5.88;;;20.40;80.20;;;;;;5040024;28;20049;-79
2021/07/17 08:15:50;;;;;;;12.10;4.72;;;20.50;79.80;;;;;;5035765;28;20045;-79
2021/07/17 08:18:17;;;;;;;11.77;4.57;;;20.60;79.20;;;;;;5033424;28;20041;-79
2021/07/17 08:20:45;;;;;;;11.18;4.47;;;20.70;78.70;;;;;;5036534;28;20053;-78
2021/07/17 08:23:13;;;;;;;10.75;4.30;;;20.80;78.40;;;;;;5035458;28;20502;-78
2021/07/17 08:25:40;;;;;;;9.60;4.43;;;20.80;78.00;;;;;;5035338;28;20037;-78
2021/07/17 08:28:08;;;;;;;9.27;4.28;;;20.90;77.70;;;;;;5030216;28;20506;-78
2021/07/17 08:30:37;;;;;;;9.07;4.57;;;21.10;77.20;;;;;;5035186;28;20398;-78
2021/07/17 08:33:06;;;;;;;11.45;4.70;;;21.20;76.90;;;;;;5035178;28;20048;-78
2021/07/17 08:35:34;;;;;;;8.98;4.25;;;21.30;76.60;;;;;;5036320;28;20061;-78
2021/07/17 08:38:02;;;;;;;8.60;3.60;;;21.30;76.00;;;;;;5047344;28;20053;-78
2021/07/17 08:40:29;;;;;;;7.15;3.88;;;21.40;75.70;;;;;;5035527;28;20045;-78
2021/07/17 08:42:57;;;;;;;8.68;3.20;;;21.50;75.40;;;;;;5035559;28;20056;-78
2021/07/17 08:45:26;;;;;;;7.38;4.07;;;21.60;75.10;;;;;;5067368;28;20056;-78
2021/07/17 08:47:55;;;;;;;6.68;3.38;;;21.80;75.10;;;;;;5035517;28;20116;-77
2021/07/17 08:50:26;;;;;;;11.45;3.92;;;21.80;75.10;;;;;;5035711;28;20046;-78
2021/07/17 08:52:58;;;;;;;8.40;3.70;;;22.00;74.50;;;;;;5067147;28;20050;-77
2021/07/17 08:55:32;;;;;;;6.07;3.40;;;22.00;74.00;;;;;;5035291;28;20049;-78
2021/07/17 08:58:01;;;;;;;8.00;3.20;;;22.10;73.50;;;;;;5035382;28;20052;-78
2021/07/17 09:00:35;;;;;;;6.43;3.30;;;22.20;73.30;;;;;;5034105;28;20054;-78
2021/07/17 09:03:06;;;;;;;6.47;3.10;;;22.30;73.20;;;;;;5034228;28;20046;-78
2021/07/17 09:05:42;;;;;;;9.82;3.42;;;22.40;73.00;;;;;;5035541;28;20537;-78
2021/07/17 09:08:11;;;;;;;7.43;4.00;;;22.60;72.60;;;;;;5036018;28;20050;-79
2021/07/17 09:10:43;;;;;;;6.82;3.80;;;22.60;72.20;;;;;;5036184;28;20061;-78
2021/07/17 09:13:22;;;;;;;9.65;3.40;;;22.80;72.00;;;;;;5035950;28;20061;-79
2021/07/17 09:15:54;;;;;;;9.63;3.72;;;22.80;71.10;;;;;;5035198;28;20076;-79
2021/07/17 09:18:21;;;;;;;9.35;3.33;;;22.80;71.00;;;;;;5034965;28;20041;-79
2021/07/17 09:21:02;;;;;;;9.88;3.63;;;22.80;70.80;;;;;;5034197;28;20060;-79
2021/07/17 09:23:34;;;;;;;6.07;3.72;;;22.80;70.40;;;;;;5034618;28;20061;-79
2021/07/17 09:26:12;;;;;;;6.40;3.95;;;22.90;70.10;;;;;;5034559;28;20052;-78
2021/07/17 09:28:40;;;;;;;7.35;3.78;;;22.90;69.70;;;;;;5049893;28;20045;-79
2021/07/17 09:31:09;;;;;;;9.07;3.33;;;23.00;69.60;;;;;;5034974;28;20192;-80
2021/07/17 09:33:36;;;;;;;8.35;3.50;;;23.00;69.50;;;;;;5034767;28;20398;-77
2021/07/17 09:36:04;;;;;;;9.35;2.78;;;23.10;69.30;;;;;;5034249;28;20402;-82
2021/07/17 09:38:33;;;;;;;10.80;2.38;;;23.20;69.20;;;;;;5034750;28;20049;-79
2021/07/17 09:41:06;;;;;;;4.60;2.20;;;23.30;68.30;;;;;;5033150;28;20041;-79
2021/07/17 09:43:43;;;;;;;7.72;2.65;;;23.30;67.50;;;;;;5034519;28;20041;-79
2021/07/17 09:46:21;;;;;;;4.45;1.98;;;23.50;67.20;;;;;;5034688;28;20049;-81
2021/07/17 09:48:54;;;;;;;7.15;2.83;;;23.60;66.50;;;;;;5034707;28;20392;-81
2021/07/17 09:51:24;;;;;;;9.70;2.42;;;23.60;66.30;;;;;;5034036;28;20098;-81
2021/07/17 09:54:01;;;;;;;5.45;1.88;;;23.70;65.90;;;;;;5030075;28;20054;-80
2021/07/17 09:56:31;;;;;;;7.10;2.08;;;23.80;65.50;;;;;;5015260;28;20065;-80
2021/07/17 09:59:01;;;;;;;5.72;1.95;;;23.90;65.00;;;;;;5014646;28;20053;-79
2021/07/17 10:01:37;;;;;;;5.50;1.80;;;24.00;64.80;;;;;;5014275;28;20593;-80
2021/07/17 10:04:13;;;;;;;4.95;1.73;;;24.20;63.70;;;;;;5014342;28;20046;-79
2021/07/17 10:06:42;;;;;;;4.50;1.58;;;24.30;63.20;;;;;;5014919;28;20053;-78
2021/07/17 10:09:16;;;;;;;3.28;1.50;;;24.40;62.10;;;;;;5014249;28;20050;-79
2021/07/17 10:11:50;;;;;;;7.13;2.13;;;24.50;61.50;;;;;;5014022;28;20064;-79
2021/07/17 10:14:22;;;;;;;6.07;1.88;;;24.50;61.70;;;;;;5014770;28;20046;-80
2021/07/17 10:16:55;;;;;;;4.78;2.20;;;24.60;61.40;;;;;;5014311;28;20054;-79
2021/07/17 10:19:27;;;;;;;5.15;2.28;;;24.60;61.30;;;;;;5013184;28;20042;-80
2021/07/17 10:21:55;;;;;;;10.48;1.98;;;24.70;61.40;;;;;;5014033;28;20046;-80
2021/07/17 10:24:24;;;;;;;6.53;1.80;;;24.80;60.90;;;;;;5013671;28;20057;-79
2021/07/17 10:26:54;;;;;;;4.63;1.63;;;24.80;60.20;;;;;;5013803;28;20053;-80
2021/07/17 10:29:24;;;;;;;4.85;1.67;;;25.00;59.60;;;;;;5013933;28;20046;-79
2021/07/17 10:31:52;;;;;;;3.03;1.50;;;25.10;59.10;;;;;;5013721;28;20045;-78
2021/07/17 10:34:20;;;;;;;6.30;2.03;;;25.30;58.60;;;;;;5013515;28;20042;-80
2021/07/17 10:37:10;;;;;;;3.88;1.77;;;25.40;58.30;;;;;;5044841;28;20503;-80
2021/07/17 10:39:45;;;;;;;8.55;2.25;;;25.60;57.80;;;;;;5013679;28;20390;-80
2021/07/17 10:42:18;;;;;;;13.10;2.38;;;25.70;57.80;;;;;;5013545;28;20054;-80
2021/07/17 10:44:47;;;;;;;71.82;5.63;;;25.80;57.10;;;;;;5013762;28;20058;-78
2021/07/17 10:47:16;;;;;;;12.88;2.20;;;25.80;57.10;;;;;;5013706;28;20058;-79
2021/07/17 10:49:47;;;;;;;5.28;2.17;;;25.90;56.60;;;;;;5013276;28;20050;-79
2021/07/17 10:52:32;;;;;;;5.65;2.10;;;26.00;56.60;;;;;;5013450;28;20045;-79
2021/07/17 10:55:36;;;;;;;7.53;2.08;;;26.20;56.60;;;;;;5013759;28;20121;-79
2021/07/17 10:58:11;;;;;;;8.90;1.98;;;26.30;55.80;;;;;;5014001;28;20065;-80
2021/07/17 11:00:41;;;;;;;;;;;26.40;55.20;;;;;;5012757;28;20042;-80
2021/07/17 11:03:30;;;;;;;12.63;2.10;;;26.50;55.10;;;;;;5015189;28;19936;-80
2021/07/17 11:06:24;;;;;;;6.93;2.20;;;26.60;54.70;;;;;;5014491;28;20053;-78
2021/07/17 11:08:53;;;;;;;;;;;26.70;54.50;;;;;;5013631;28;20041;-78
2021/07/17 11:11:31;;;;;;;5.55;1.55;;;26.90;54.30;;;;;;5013351;28;19929;-78
2021/07/17 11:14:07;;;;;;;4.72;1.70;;;27.00;53.80;;;;;;5011629;28;20057;-78
2021/07/17 11:16:39;;;;;;;4.00;1.50;;;27.10;53.20;;;;;;5012042;28;20057;-79
2021/07/17 11:19:22;;;;;;;9.32;2.00;;;27.20;53.20;;;;;;5012613;28;20043;-79
2021/07/17 11:21:50;;;;;;;6.68;1.92;;;27.30;53.00;;;;;;5012986;28;20061;-79
2021/07/17 11:24:22;;;;;;;9.20;1.70;;;27.40;52.50;;;;;;5012892;28;20042;-79
2021/07/17 11:27:16;;;;;;;5.57;1.48;;;27.50;52.50;;;;;;5012798;28;20038;-78
2021/07/17 11:29:48;;;;;;;7.60;1.95;;;27.60;50.30;;;;;;5012806;28;20054;-78
2021/07/17 11:32:17;;;;;;;7.90;1.40;;;27.60;50.80;;;;;;5012790;28;20388;-79
2021/07/17 11:34:48;;;;;;;4.47;1.60;;;27.60;51.30;;;;;;5013759;28;20042;-78
2021/07/17 11:37:22;;;;;;;4.65;1.77;;;27.80;51.30;;;;;;5014596;28;20057;-78
2021/07/17 11:39:55;;;;;;;3.05;1.48;;;27.80;50.90;;;;;;5013542;28;20042;-79
2021/07/17 11:42:23;;;;;;;6.50;1.50;;;27.80;51.30;;;;;;5011457;28;20050;-78
2021/07/17 11:44:56;;;;;;;6.43;1.40;;;27.90;51.00;;;;;;5011999;28;20054;-78
2021/07/17 11:47:30;;;;;;;3.33;1.35;;;28.00;49.90;;;;;;5015377;28;20037;-78
2021/07/17 11:49:59;;;;;;;;;;;28.00;49.90;;;;;;5032336;28;20041;-79
2021/07/17 11:52:29;;;;;;;4.28;1.52;;;28.00;50.20;;;;;;5030959;28;19921;-78
2021/07/17 11:55:06;;;;;;;6.82;1.90;;;28.10;50.00;;;;;;5047462;28;20420;-78
2021/07/17 11:57:36;;;;;;;4.60;1.70;;;28.30;49.40;;;;;;5031402;28;20052;-78
2021/07/17 12:00:06;;;;;;;4.53;1.80;;;28.40;48.70;;;;;;5032192;28;20053;-79
2021/07/17 12:02:53;;;;;;;3.00;1.58;;;28.60;48.30;;;;;;5031986;28;20049;-78
2021/07/17 12:05:22;;;;;;;5.55;1.85;;;28.70;48.30;;;;;;5031906;28;20061;-78
2021/07/17 12:07:50;;;;;;;7.20;3.97;;;28.80;47.80;;;;;;5032259;28;20048;-78
2021/07/17 12:10:23;;;;;;;5.63;1.70;;;28.90;47.50;;;;;;5032266;28;20045;-78
2021/07/17 12:12:56;;;;;;;7.70;1.67;;;29.00;47.60;;;;;;5038764;28;20045;-78
2021/07/17 12:15:35;;;;;;;6.03;1.50;;;29.10;47.40;;;;;;5031731;28;20049;-78
2021/07/17 12:18:04;;;;;;;5.32;1.48;;;29.20;47.10;;;;;;5029772;28;20050;-79
2021/07/17 12:20:37;;;;;;;6.03;1.80;;;29.30;46.70;;;;;;5031601;28;20045;-79
2021/07/17 12:23:15;;;;;;;8.32;1.90;;;29.30;46.50;;;;;;5029692;28;20046;-79
2021/07/17 12:25:42;;;;;;;9.75;5.85;;;29.30;46.70;;;;;;5032148;28;20061;-79
2021/07/17 12:28:26;;;;;;;17.67;10.60;;;29.30;46.00;;;;;;5032230;28;20042;-79
2021/07/17 12:30:56;;;;;;;7.88;5.25;;;29.40;46.40;;;;;;5031984;28;20053;-79
2021/07/17 12:33:36;;;;;;;5.00;2.90;;;29.60;46.10;;;;;;5030955;28;20056;-79
2021/07/17 12:36:08;;;;;;;6.65;2.60;;;29.70;45.50;;;;;;5032343;28;20057;-79
2021/07/17 12:38:44;;;;;;;5.47;2.40;;;29.80;45.30;;;;;;5031320;28;20080;-79
2021/07/17 12:41:29;;;;;;;9.27;4.85;;;29.80;45.20;;;;;;5032409;28;20309;-79
2021/07/17 12:44:16;;;;;;;9.77;5.05;;;30.00;45.00;;;;;;5030768;28;20491;-79
2021/07/17 12:46:46;;;;;;;5.60;2.58;;;30.30;44.70;;;;;;5032031;28;20045;-80
2021/07/17 12:49:18;;;;;;;12.38;5.93;;;30.60;44.50;;;;;;5031940;28;20398;-80
2021/07/17 12:51:51;;;;;;;63.45;39.92;;;30.90;43.80;;;;;;5030265;28;20072;-80
2021/07/17 12:54:20;;;;;;;;;;;31.00;43.30;;;;;;5033049;28;20541;-80